Campbell Foss — WDC7754 — position and weather

sailwx.info

Track history (hours):
 
Tides and Currents Weather Stations Pressure Air Temp Water Temp Dewpoint Dewpoint Depression Visibility Wind Speed Wind Dir Waves Ship Positions

Campbell Foss

Owner: Foss Maritime Co., Seattle, WA. More information available from US FCC via Universal Licensing System and Coast Guard Vessel Documentation Center.

Last reported at 2017-Jan-17 23:33 UTC. Time now 2017-Jan-18 04:13 UTC.
Position N 33°46' W 118°13'.

Length 23 m; draft 16 m.

Type: Tug. MMSI: 367076360.

Date/timePositionNaut miles runAvg speedWind from/ knotsBaromVisibWave heightAir tempDewpointWater temp
2017-Jan-17 23:33N 33°46' W 118°13'0 0.0
2017-Jan-17 22:31N 33°46' W 118°13'0 0.0
2017-Jan-17 21:25N 33°46' W 118°13'0 0.0
2017-Jan-17 20:33N 33°46' W 118°13'0 0.0
2017-Jan-17 19:33N 33°46' W 118°13'0 0.0
2017-Jan-17 18:33N 33°46' W 118°13'0 0.0
2017-Jan-17 15:31N 33°46' W 118°13'0 0.0
2017-Jan-17 14:33N 33°46' W 118°13'0 0.0
2017-Jan-17 13:17N 33°46' W 118°13'0 0.0
2017-Jan-17 12:33N 33°46' W 118°13'0 0.0
2017-Jan-17 11:33N 33°46' W 118°13'0 0.0
2017-Jan-17 10:30N 33°46' W 118°13'0 0.0
2017-Jan-17 09:33N 33°46' W 118°13'0 0.0
2017-Jan-15 06:22N 33°46' W 118°13'0 0.0
2017-Jan-15 00:30N 33°46' W 118°13'0 0.0
2017-Jan-14 23:32N 33°46' W 118°13'0 0.0
2017-Jan-14 22:27N 33°46' W 118°13'0 0.0
2017-Jan-14 21:33N 33°46' W 118°13'2 0.7
2017-Jan-14 18:08N 33°46' W 118°15'1 1.3
2017-Jan-14 17:29N 33°45' W 118°16'1 0.8
2017-Jan-14 16:31N 33°46' W 118°17'  
2017-Jan-09 07:09N 33°46' W 118°14'1 1.7
2017-Jan-09 06:31N 33°46' W 118°16'2 1.8
2017-Jan-09 05:17N 33°46' W 118°13'0 0.0
2017-Jan-09 04:34N 33°46' W 118°13'3 2.7
2017-Jan-09 03:33N 33°43' W 118°11'  
Track history (hours):
 
Tides and Currents Weather Stations Pressure Air Temp Water Temp Dewpoint Dewpoint Depression Visibility Wind Speed Wind Dir Waves Ship Positions

Campbell Foss

Owner: Foss Maritime Co., Seattle, WA. More information available from US FCC via Universal Licensing System and Coast Guard Vessel Documentation Center.

Last reported at 2017-Jan-17 23:33 UTC. Time now 2017-Jan-18 04:13 UTC.
Position N 33°46' W 118°13'.

Length 23 m; draft 16 m.

Type: Tug. MMSI: 367076360.

Date/timePositionNaut miles runAvg speedWind from/ knotsBaromVisibWave heightAir tempDewpointWater temp
2017-Jan-17 23:33N 33°46' W 118°13'0 0.0
2017-Jan-17 22:31N 33°46' W 118°13'0 0.0
2017-Jan-17 21:25N 33°46' W 118°13'0 0.0
2017-Jan-17 20:33N 33°46' W 118°13'0 0.0
2017-Jan-17 19:33N 33°46' W 118°13'0 0.0
2017-Jan-17 18:33N 33°46' W 118°13'0 0.0
2017-Jan-17 15:31N 33°46' W 118°13'0 0.0
2017-Jan-17 14:33N 33°46' W 118°13'0 0.0
2017-Jan-17 13:17N 33°46' W 118°13'0 0.0
2017-Jan-17 12:33N 33°46' W 118°13'0 0.0
2017-Jan-17 11:33N 33°46' W 118°13'0 0.0
2017-Jan-17 10:30N 33°46' W 118°13'0 0.0
2017-Jan-17 09:33N 33°46' W 118°13'0 0.0
2017-Jan-15 06:22N 33°46' W 118°13'0 0.0
2017-Jan-15 00:30N 33°46' W 118°13'0 0.0
2017-Jan-14 23:32N 33°46' W 118°13'0 0.0
2017-Jan-14 22:27N 33°46' W 118°13'0 0.0
2017-Jan-14 21:33N 33°46' W 118°13'2 0.7
2017-Jan-14 18:08N 33°46' W 118°15'1 1.3
2017-Jan-14 17:29N 33°45' W 118°16'1 0.8
2017-Jan-14 16:31N 33°46' W 118°17'  
2017-Jan-09 07:09N 33°46' W 118°14'1 1.7
2017-Jan-09 06:31N 33°46' W 118°16'2 1.8
2017-Jan-09 05:17N 33°46' W 118°13'0 0.0
2017-Jan-09 04:34N 33°46' W 118°13'3 2.7
2017-Jan-09 03:33N 33°43' W 118°11'  

Dump ship's entire track history